Winfield, Iowa
Current Conditions -  °F | °C
As of 11:35 AM on Monday 24 Nov 2014 (Local Time) from KMPZ Reporting Station
Overcast Overcast  
Wind Chill: 14°   Ceiling: 1800
Heat Index: 27°   Visibility: 10mi
Dew Point: 22°   Wind: 20mph
Humidity: 81%   Direction: 260°W
Pressure: 29.57"   Gusts: 28mph
Location:  41.12°N, 91.44°W
Report Text: KMPZ 241735Z AUTO 26017G24KT 10SM OVC018 M03/M05 A2957 RMK AO2 T10261054
Loading
Personal Weather Stations






























Interactive Weather Map New forecast layout! Learn more

10-Day Weather Forecast

Advertisements
Track Severe Weather on mobile